createdAt,value
2018-08-12T00:00:57.936Z,2.37
2018-08-12T00:03:26.610Z,1.60
2018-08-12T00:05:55.289Z,2.07
2018-08-12T00:08:23.950Z,2.63
2018-08-12T00:10:52.309Z,1.83
2018-08-12T00:13:21.010Z,2.00
2018-08-12T00:15:49.705Z,2.30
2018-08-12T00:18:17.973Z,1.80
2018-08-12T00:20:47.906Z,2.50
2018-08-12T00:23:16.240Z,2.07
2018-08-12T00:25:45.030Z,2.73
2018-08-12T00:28:13.344Z,1.80
2018-08-12T00:30:42.017Z,2.03
2018-08-12T00:33:10.745Z,3.83
2018-08-12T00:35:39.886Z,2.03
2018-08-12T00:38:08.580Z,1.93
2018-08-12T00:40:37.165Z,1.70
2018-08-12T00:43:06.020Z,1.97
2018-08-12T00:45:34.728Z,4.27
2018-08-12T00:48:03.053Z,2.10
2018-08-12T00:50:31.782Z,2.23
2018-08-12T00:53:00.461Z,1.90
2018-08-12T00:55:28.729Z,3.67
2018-08-12T00:57:57.359Z,1.97
2018-08-12T01:00:26.039Z,2.20
2018-08-12T01:02:54.354Z,5.63
2018-08-12T01:05:22.993Z,1.93
2018-08-12T01:07:51.831Z,2.20
2018-08-12T01:10:20.920Z,2.23
2018-08-12T01:12:49.247Z,2.40
2018-08-12T01:15:18.363Z,2.70
2018-08-12T01:17:46.788Z,4.27
2018-08-12T01:20:16.783Z,1.83
2018-08-12T01:22:45.050Z,2.77
2018-08-12T01:25:13.573Z,2.27
2018-08-12T01:27:42.295Z,2.93
2018-08-12T01:30:13.651Z,2.93
2018-08-12T01:32:42.183Z,2.50
2018-08-12T01:35:11.738Z,2.90
2018-08-12T01:37:40.590Z,2.60
2018-08-12T01:40:11.381Z,3.30
2018-08-12T01:42:40.792Z,3.20
2018-08-12T01:45:09.769Z,3.17
2018-08-12T01:47:38.399Z,5.00
2018-08-12T01:50:07.307Z,2.50
2018-08-12T01:52:35.583Z,3.07
2018-08-12T01:55:04.773Z,2.80
2018-08-12T01:57:33.467Z,4.90
2018-08-12T02:00:01.875Z,3.27
2018-08-12T02:02:30.540Z,2.63
2018-08-12T02:04:58.836Z,3.87
2018-08-12T02:07:27.537Z,2.73
2018-08-12T02:09:56.254Z,2.80
2018-08-12T02:12:24.928Z,2.90
2018-08-12T02:14:53.233Z,2.80
2018-08-12T02:17:21.895Z,4.00
2018-08-12T02:19:50.194Z,5.10
2018-08-12T02:22:19.194Z,2.80
2018-08-12T02:24:47.485Z,3.27
2018-08-12T02:27:16.103Z,3.07
2018-08-12T02:29:44.772Z,3.73
2018-08-12T02:32:13.500Z,3.53
2018-08-12T02:34:41.851Z,3.73
2018-08-12T02:37:10.512Z,4.10
2018-08-12T02:39:39.217Z,3.27
2018-08-12T02:42:07.971Z,3.33
2018-08-12T02:44:36.615Z,3.60
2018-08-12T02:47:05.365Z,3.80
2018-08-12T02:49:33.711Z,3.63
2018-08-12T02:52:02.391Z,3.13
2018-08-12T02:54:31.074Z,3.87
2018-08-12T02:56:59.385Z,3.60
2018-08-12T02:59:28.582Z,3.33
2018-08-12T03:01:56.916Z,3.60
2018-08-12T03:04:25.231Z,3.40
2018-08-12T03:06:53.583Z,3.10
2018-08-12T03:09:21.903Z,3.40
2018-08-12T03:11:50.246Z,3.13
2018-08-12T03:14:18.549Z,3.20
2018-08-12T03:16:47.242Z,4.30
2018-08-12T03:19:15.521Z,3.03
2018-08-12T03:21:44.523Z,3.53
2018-08-12T03:24:13.223Z,3.37
2018-08-12T03:26:41.501Z,3.27
2018-08-12T03:29:09.803Z,3.23
2018-08-12T03:31:38.898Z,4.20
2018-08-12T03:34:07.205Z,3.93
2018-08-12T03:36:35.537Z,3.20
2018-08-12T03:39:05.718Z,3.40
2018-08-12T03:41:34.010Z,3.10
2018-08-12T03:44:02.363Z,3.87
2018-08-12T03:46:30.641Z,3.27
2018-08-12T03:48:58.972Z,3.47
2018-08-12T03:51:28.450Z,5.27
2018-08-12T03:53:56.728Z,4.87
2018-08-12T03:56:24.999Z,3.40
2018-08-12T03:58:53.682Z,3.63
2018-08-12T04:01:22.348Z,3.20
2018-08-12T04:03:50.685Z,3.83
2018-08-12T04:06:19.331Z,2.93
2018-08-12T04:08:48.008Z,4.37
2018-08-12T04:11:16.678Z,5.73
2018-08-12T04:13:44.932Z,3.30
2018-08-12T04:16:13.621Z,3.17
2018-08-12T04:18:41.927Z,3.10
2018-08-12T04:21:13.256Z,3.37
2018-08-12T04:23:42.004Z,3.50
2018-08-12T04:26:10.275Z,5.80
2018-08-12T04:28:38.576Z,2.90
2018-08-12T04:31:06.866Z,3.40
2018-08-12T04:33:35.200Z,3.50
2018-08-12T04:36:03.492Z,2.97
2018-08-12T04:38:31.762Z,3.70
2018-08-12T04:41:00.066Z,4.43
2018-08-12T04:43:28.726Z,3.50
2018-08-12T04:45:57.101Z,3.27
2018-08-12T04:48:25.398Z,3.30
2018-08-12T04:50:55.092Z,3.60
2018-08-12T04:53:23.372Z,4.07
2018-08-12T04:55:52.038Z,3.60
2018-08-12T04:58:20.345Z,5.37
2018-08-12T05:00:48.668Z,3.50
2018-08-12T05:03:17.020Z,3.40
2018-08-12T05:05:45.320Z,3.70
2018-08-12T05:08:13.626Z,4.20
2018-08-12T05:10:41.935Z,3.33
2018-08-12T05:13:10.244Z,3.10
2018-08-12T05:15:38.532Z,3.40
2018-08-12T05:18:06.838Z,3.70
2018-08-12T05:20:40.017Z,4.00
2018-08-12T05:23:08.716Z,3.63
2018-08-12T05:25:37.355Z,3.40
2018-08-12T05:28:06.116Z,6.83
2018-08-12T05:30:34.416Z,4.00
2018-08-12T05:33:03.061Z,3.60
2018-08-12T05:35:31.356Z,3.47
2018-08-12T05:38:00.034Z,3.90
2018-08-12T05:40:28.382Z,3.20
2018-08-12T05:42:56.699Z,3.23
2018-08-12T05:45:24.994Z,3.23
2018-08-12T05:47:53.276Z,4.13
2018-08-12T05:50:21.838Z,3.40
2018-08-12T05:52:50.183Z,3.60
2018-08-12T05:55:21.847Z,3.93
2018-08-12T05:57:50.157Z,3.27
2018-08-12T06:00:18.539Z,3.47
2018-08-12T06:02:46.893Z,3.50
2018-08-12T06:05:15.261Z,3.43
2018-08-12T06:07:43.976Z,3.70
2018-08-12T06:10:14.196Z,3.60
2018-08-12T06:12:42.543Z,4.17
2018-08-12T06:15:13.555Z,5.20
2018-08-12T06:17:42.263Z,3.73
2018-08-12T06:20:11.745Z,5.33
2018-08-12T06:22:40.795Z,4.80
2018-08-12T06:25:10.551Z,4.40
2018-08-12T06:27:39.228Z,3.90
2018-08-12T06:30:08.352Z,5.03
2018-08-12T06:32:37.045Z,5.00
2018-08-12T06:35:05.967Z,4.50
2018-08-12T06:37:34.629Z,3.87
2018-08-12T06:40:03.785Z,4.73
2018-08-12T06:42:32.468Z,3.77
2018-08-12T06:45:01.219Z,3.77
2018-08-12T06:47:29.868Z,4.47
2018-08-12T06:49:58.537Z,4.17
2018-08-12T06:52:27.222Z,4.30
2018-08-12T06:54:56.025Z,4.40
2018-08-12T06:57:24.692Z,5.33
2018-08-12T06:59:53.670Z,5.83
2018-08-12T07:02:22.507Z,4.63
2018-08-12T07:04:51.503Z,4.43
2018-08-12T07:07:20.204Z,4.33
2018-08-12T07:09:48.903Z,4.17
2018-08-12T07:12:17.605Z,4.93
2018-08-12T07:14:46.292Z,5.93
2018-08-12T07:17:14.998Z,4.70
2018-08-12T07:19:44.206Z,4.27
2018-08-12T07:22:12.992Z,5.20
2018-08-12T07:24:41.639Z,6.97
2018-08-12T07:27:10.374Z,7.57
2018-08-12T07:29:39.340Z,4.10
2018-08-12T07:32:07.993Z,5.47
2018-08-12T07:34:36.663Z,4.80
2018-08-12T07:37:05.362Z,5.20
2018-08-12T07:39:34.124Z,4.67
2018-08-12T07:42:02.855Z,4.60
2018-08-12T07:44:31.665Z,5.03
2018-08-12T07:47:00.614Z,4.50
2018-08-12T07:49:29.453Z,4.20
2018-08-12T07:51:58.421Z,4.30
2018-08-12T07:54:27.194Z,3.67
2018-08-12T07:56:55.929Z,4.40
2018-08-12T07:59:24.604Z,3.70
2018-08-12T08:01:53.304Z,3.83
2018-08-12T08:04:21.990Z,3.87
2018-08-12T08:06:50.704Z,3.80
2018-08-12T08:09:19.333Z,4.40
2018-08-12T08:11:48.009Z,7.40
2018-08-12T08:14:17.660Z,3.65
2018-08-12T08:16:46.383Z,3.37
2018-08-12T08:19:15.179Z,3.60
2018-08-12T08:21:43.882Z,3.15
2018-08-12T08:24:12.659Z,3.00
2018-08-12T08:26:41.414Z,3.50
2018-08-12T08:29:10.241Z,3.65
2018-08-12T08:31:39.107Z,4.17
2018-08-12T08:34:07.705Z,2.80
2018-08-12T08:36:37.340Z,3.62
2018-08-12T08:39:11.230Z,3.70
2018-08-12T08:41:41.246Z,4.72
2018-08-12T08:44:11.853Z,3.60
2018-08-12T08:46:42.100Z,11.75
2018-08-12T08:49:12.160Z,4.58
2018-08-12T08:51:44.630Z,4.65
2018-08-12T08:54:13.304Z,6.42
2018-08-12T08:56:43.244Z,4.58
2018-08-12T08:59:13.213Z,4.62
2018-08-12T09:01:42.593Z,4.92
2018-08-12T09:04:12.188Z,3.92
2018-08-12T09:06:42.765Z,4.75
2018-08-12T09:09:15.298Z,3.77
2018-08-12T09:11:45.334Z,6.92
2018-08-12T09:14:14.044Z,4.58
2018-08-12T09:16:42.836Z,5.22
2018-08-12T09:19:11.586Z,6.12
2018-08-12T09:21:43.247Z,4.17
2018-08-12T09:24:13.292Z,3.85
2018-08-12T09:26:43.201Z,2.72
2018-08-12T09:29:13.334Z,2.77
2018-08-12T09:31:44.340Z,2.67
2018-08-12T09:34:14.603Z,4.50
2018-08-12T09:36:46.015Z,3.27
2018-08-12T09:39:14.764Z,4.50
2018-08-12T09:41:45.677Z,3.20
2018-08-12T09:44:14.351Z,4.42
2018-08-12T09:46:44.189Z,2.42
2018-08-12T09:49:14.875Z,3.87
2018-08-12T09:51:45.261Z,2.67
2018-08-12T09:54:15.887Z,3.20
2018-08-12T09:56:45.971Z,4.03
2018-08-12T09:59:15.236Z,3.25
2018-08-12T10:01:45.574Z,3.35
2018-08-12T10:04:14.250Z,3.20
2018-08-12T10:06:42.992Z,2.15
2018-08-12T10:09:12.154Z,2.25
2018-08-12T10:11:43.655Z,5.20
2018-08-12T10:14:13.775Z,2.00
2018-08-12T10:16:44.029Z,3.33
2018-08-12T10:19:14.516Z,3.02
2018-08-12T10:21:44.713Z,2.98
2018-08-12T10:24:14.957Z,3.10
2018-08-12T10:26:43.707Z,2.85
2018-08-12T10:29:12.374Z,2.22
2018-08-12T10:31:42.873Z,2.05
2018-08-12T10:34:12.359Z,2.33
2018-08-12T10:36:41.911Z,2.40
2018-08-12T10:39:12.012Z,4.08
2018-08-12T10:41:41.428Z,4.58
2018-08-12T10:44:11.128Z,1.50
2018-08-12T10:46:39.926Z,1.30
2018-08-12T10:49:08.614Z,2.58
2018-08-12T10:51:38.887Z,3.22
2018-08-12T10:54:09.152Z,2.72
2018-08-12T10:56:39.846Z,1.40
2018-08-12T10:59:10.413Z,2.58
2018-08-12T11:01:40.502Z,1.75
2018-08-12T11:04:10.120Z,1.40
2018-08-12T11:06:38.970Z,2.00
2018-08-12T11:09:08.655Z,1.12
2018-08-12T11:11:39.358Z,0.85
2018-08-12T11:14:09.615Z,1.40
2018-08-12T11:16:39.394Z,1.37
2018-08-12T11:19:09.715Z,2.12
2018-08-12T11:21:39.585Z,1.10
2018-08-12T11:24:10.056Z,2.10
2018-08-12T11:26:38.719Z,1.20
2018-08-12T11:29:07.836Z,1.10
2018-08-12T11:31:38.010Z,1.65
2018-08-12T11:34:09.157Z,1.35
2018-08-12T11:36:39.230Z,1.17
2018-08-12T11:39:12.116Z,1.10
2018-08-12T11:41:41.909Z,2.02
2018-08-12T11:44:12.099Z,2.08
2018-08-12T11:46:40.786Z,1.05
2018-08-12T11:49:09.506Z,1.62
2018-08-12T11:51:40.169Z,2.58
2018-08-12T11:54:10.495Z,1.22
2018-08-12T11:56:40.417Z,1.70
2018-08-12T12:02:05.751Z,1.15
2018-08-12T12:04:36.707Z,1.05
2018-08-12T12:07:05.777Z,1.60
2018-08-12T12:09:34.433Z,1.00
2018-08-12T12:12:04.120Z,0.93
2018-08-12T12:14:34.433Z,1.72
2018-08-12T12:17:03.860Z,2.00
2018-08-12T12:19:33.200Z,1.92
2018-08-12T12:22:02.704Z,1.17
2018-08-12T12:24:31.989Z,1.42
2018-08-12T12:27:00.690Z,1.80
2018-08-12T12:29:31.647Z,1.80
2018-08-12T12:32:01.713Z,1.25
2018-08-12T12:34:31.683Z,1.77
2018-08-12T12:37:01.816Z,1.62
2018-08-12T12:39:31.059Z,1.15
2018-08-12T12:42:01.467Z,1.30
2018-08-12T12:44:32.241Z,1.65
2018-08-12T12:47:03.057Z,1.95
2018-08-12T12:49:37.197Z,0.90
2018-08-12T12:52:08.021Z,1.62
2018-08-12T12:54:39.876Z,0.85
2018-08-12T12:57:10.854Z,1.10
2018-08-12T12:59:41.307Z,1.00
2018-08-12T13:02:13.901Z,0.65
2018-08-12T13:04:45.686Z,0.85
2018-08-12T13:07:17.686Z,2.12
2018-08-12T13:09:49.047Z,0.90
2018-08-12T13:12:19.043Z,0.60
2018-08-12T13:14:49.147Z,0.57
2018-08-12T13:17:19.329Z,0.78
2018-08-12T13:19:50.042Z,0.75
2018-08-12T13:22:18.763Z,0.90
2018-08-12T13:24:47.420Z,0.53
2018-08-12T13:27:16.124Z,0.70
2018-08-12T13:29:44.772Z,3.08
2018-08-12T13:32:13.437Z,0.72
2018-08-12T13:34:42.147Z,0.80
2018-08-12T13:37:10.818Z,1.05
2018-08-12T13:39:40.329Z,2.80
2018-08-12T13:42:09.088Z,1.00
2018-08-12T13:44:37.788Z,2.62
2018-08-12T13:47:06.550Z,1.35
2018-08-12T13:49:35.215Z,0.60
2018-08-12T13:52:04.199Z,1.27
2018-08-12T13:54:32.913Z,0.90
2018-08-12T13:57:01.618Z,0.65
2018-08-12T13:59:30.283Z,0.80
2018-08-12T14:01:58.950Z,0.85
2018-08-12T14:04:27.563Z,0.68
2018-08-12T14:06:56.260Z,0.68
2018-08-12T14:09:24.922Z,0.90
2018-08-12T14:11:53.599Z,0.70
2018-08-12T14:14:22.264Z,0.50
2018-08-12T14:16:50.917Z,0.70
2018-08-12T14:19:19.600Z,1.85
2018-08-12T14:21:48.271Z,1.22
2018-08-12T14:24:16.929Z,1.80
2018-08-12T14:26:45.628Z,0.68
2018-08-12T14:29:14.341Z,0.72
2018-08-12T14:31:42.986Z,0.60
2018-08-12T14:34:11.640Z,1.80
2018-08-12T14:36:40.338Z,0.80
2018-08-12T14:39:10.106Z,2.35
2018-08-12T14:41:38.857Z,0.60
2018-08-12T14:44:07.545Z,0.50
2018-08-12T14:46:36.482Z,1.50
2018-08-12T14:49:05.222Z,0.80
2018-08-12T14:51:33.913Z,0.55
2018-08-12T14:54:02.593Z,0.50
2018-08-12T14:56:31.321Z,0.82
2018-08-12T14:59:00.223Z,1.90
2018-08-12T15:01:28.865Z,0.50
2018-08-12T15:03:57.767Z,0.60
2018-08-12T15:06:26.469Z,0.37
2018-08-12T15:08:55.164Z,0.72
2018-08-12T15:11:23.832Z,0.60
2018-08-12T15:13:52.488Z,1.75
2018-08-12T15:16:21.256Z,0.40
2018-08-12T15:18:49.918Z,1.60
2018-08-12T15:21:18.614Z,1.42
2018-08-12T15:23:47.366Z,0.60
2018-08-12T15:26:16.024Z,1.10
2018-08-12T15:28:44.727Z,1.85
2018-08-12T15:31:13.401Z,1.65
2018-08-12T15:33:42.157Z,0.95
2018-08-12T15:36:10.906Z,0.75
2018-08-12T15:38:39.609Z,1.47
2018-08-12T15:41:08.259Z,2.17
2018-08-12T15:43:36.928Z,1.02
2018-08-12T15:46:05.590Z,0.60
2018-08-12T15:48:34.360Z,1.20
2018-08-12T15:51:03.276Z,0.62
2018-08-12T15:53:31.926Z,0.72
2018-08-12T15:56:00.899Z,0.80
2018-08-12T15:58:29.967Z,0.85
2018-08-12T16:00:58.861Z,0.62
2018-08-12T16:03:27.572Z,0.50
2018-08-12T16:05:56.301Z,1.00
2018-08-12T16:08:25.092Z,0.95
2018-08-12T16:10:53.818Z,0.70
2018-08-12T16:13:22.555Z,2.42
2018-08-12T16:15:51.306Z,0.95
2018-08-12T16:18:19.984Z,1.05
2018-08-12T16:20:48.814Z,0.70
2018-08-12T16:23:17.525Z,1.55
2018-08-12T16:25:46.262Z,0.50
2018-08-12T16:28:15.553Z,0.70
2018-08-12T16:30:44.180Z,0.75
2018-08-12T16:33:12.845Z,0.50
2018-08-12T16:35:42.362Z,0.98
2018-08-12T16:38:11.088Z,1.02
2018-08-12T16:40:39.789Z,0.82
2018-08-12T16:43:10.075Z,0.75
2018-08-12T16:45:38.741Z,1.60
2018-08-12T16:48:07.422Z,0.93
2018-08-12T16:50:36.091Z,0.50
2018-08-12T16:53:04.911Z,0.55
2018-08-12T16:55:33.618Z,2.10
2018-08-12T16:58:02.263Z,0.75
2018-08-12T17:00:30.926Z,1.40
2018-08-12T17:02:59.691Z,0.68
2018-08-12T17:05:28.384Z,0.95
2018-08-12T17:07:57.202Z,0.57
2018-08-12T17:10:25.887Z,0.42
2018-08-12T17:12:54.534Z,0.60
2018-08-12T17:15:23.818Z,0.53
2018-08-12T17:17:52.492Z,0.70
2018-08-12T17:20:22.133Z,1.17
2018-08-12T17:22:50.940Z,0.78
2018-08-12T17:25:19.581Z,0.78
2018-08-12T17:27:48.271Z,0.70
2018-08-12T17:30:17.778Z,1.82
2018-08-12T17:32:46.503Z,0.70
2018-08-12T17:35:15.217Z,0.37
2018-08-12T17:37:44.867Z,1.75
2018-08-12T17:40:14.637Z,0.50
2018-08-12T17:42:43.286Z,0.93
2018-08-12T17:45:13.024Z,1.35
2018-08-12T17:47:42.167Z,0.80
2018-08-12T17:50:12.540Z,0.50
2018-08-12T17:52:42.020Z,0.57
2018-08-12T17:55:10.727Z,0.50
2018-08-12T17:57:39.479Z,1.22
2018-08-12T18:00:10.303Z,0.68
2018-08-12T18:02:39.389Z,0.80
2018-08-12T18:05:08.589Z,0.60
2018-08-12T18:07:37.457Z,0.60
2018-08-12T18:10:06.469Z,0.53
2018-08-12T18:12:35.461Z,0.70
2018-08-12T18:15:04.901Z,0.80
2018-08-12T18:17:33.650Z,0.88
2018-08-12T18:20:02.401Z,3.47
2018-08-12T18:22:31.273Z,0.50
2018-08-12T18:25:00.166Z,0.70
2018-08-12T18:27:29.389Z,1.72
2018-08-12T18:29:58.049Z,0.62
2018-08-12T18:32:26.952Z,0.68
2018-08-12T18:34:55.737Z,1.30
2018-08-12T18:37:24.593Z,1.57
2018-08-12T18:39:53.842Z,1.60
2018-08-12T18:42:22.625Z,1.35
2018-08-12T18:44:52.236Z,1.80
2018-08-12T18:47:20.913Z,2.58
2018-08-12T18:49:49.672Z,1.40
2018-08-12T18:52:18.366Z,1.30
2018-08-12T18:54:47.294Z,1.25
2018-08-12T18:57:15.982Z,1.40
2018-08-12T18:59:44.972Z,2.87
2018-08-12T19:02:13.804Z,1.37
2018-08-12T19:04:42.600Z,2.12
2018-08-12T19:07:11.289Z,1.10
2018-08-12T19:09:39.955Z,1.20
2018-08-12T19:12:08.824Z,1.62
2018-08-12T19:14:37.842Z,1.10
2018-08-12T19:17:06.620Z,2.80
2018-08-12T19:19:35.290Z,2.15
2018-08-12T19:22:04.632Z,1.70
2018-08-12T19:24:33.600Z,1.60
2018-08-12T19:27:02.760Z,1.07
2018-08-12T19:29:32.033Z,2.55
2018-08-12T19:32:01.109Z,1.30
2018-08-12T19:34:30.561Z,0.93
2018-08-12T19:36:59.790Z,1.35
2018-08-12T19:39:28.474Z,1.10
2018-08-12T19:41:57.754Z,1.40
2018-08-12T19:44:27.246Z,2.00
2018-08-12T19:46:55.952Z,1.55
2018-08-12T19:49:24.642Z,1.10
2018-08-12T19:51:53.428Z,1.80
2018-08-12T19:54:22.593Z,1.40
2018-08-12T19:56:51.764Z,1.30
2018-08-12T19:59:21.126Z,1.40
2018-08-12T20:01:50.044Z,1.40
2018-08-12T20:04:19.182Z,2.25
2018-08-12T20:06:47.795Z,2.20
2018-08-12T20:09:16.837Z,2.05
2018-08-12T20:11:45.574Z,1.27
2018-08-12T20:14:14.222Z,1.50
2018-08-12T20:16:42.963Z,1.50
2018-08-12T20:19:11.633Z,2.02
2018-08-12T20:21:40.583Z,2.15
2018-08-12T20:24:09.248Z,1.37
2018-08-12T20:26:38.308Z,1.70
2018-08-12T20:29:07.616Z,1.57
2018-08-12T20:31:36.341Z,1.70
2018-08-12T20:34:05.435Z,2.22
2018-08-12T20:36:34.130Z,1.62
2018-08-12T20:39:04.307Z,1.50
2018-08-12T20:41:33.323Z,1.25
2018-08-12T20:44:02.025Z,1.40
2018-08-12T20:46:31.138Z,1.77
2018-08-12T20:48:59.845Z,6.67
2018-08-12T20:51:28.874Z,1.40
2018-08-12T20:53:58.142Z,2.22
2018-08-12T20:56:26.947Z,1.55
2018-08-12T20:58:55.677Z,1.57
2018-08-12T21:01:24.355Z,2.08
2018-08-12T21:03:53.511Z,1.55
2018-08-12T21:06:22.761Z,2.83
2018-08-12T21:08:51.763Z,2.33
2018-08-12T21:11:20.642Z,2.00
2018-08-12T21:13:49.683Z,2.37
2018-08-12T21:16:18.745Z,2.87
2018-08-12T21:18:47.676Z,3.40
2018-08-12T21:21:16.534Z,2.83
2018-08-12T21:23:45.217Z,3.10
2018-08-12T21:26:14.034Z,2.87
2018-08-12T21:28:42.944Z,2.58
2018-08-12T21:31:11.843Z,2.35
2018-08-12T21:33:40.906Z,3.37
2018-08-12T21:36:09.628Z,2.10
2018-08-12T21:38:38.866Z,2.15
2018-08-12T21:41:07.818Z,1.95
2018-08-12T21:43:36.681Z,2.05
2018-08-12T21:46:05.736Z,1.70
2018-08-12T21:48:34.963Z,2.02
2018-08-12T21:51:03.699Z,2.50
2018-08-12T21:53:32.512Z,1.65
2018-08-12T21:56:01.767Z,2.10
2018-08-12T21:58:30.677Z,1.65
2018-08-12T22:00:59.536Z,2.20
2018-08-12T22:03:28.873Z,1.70
2018-08-12T22:05:58.070Z,1.62
2018-08-12T22:08:27.279Z,1.98
2018-08-12T22:10:55.579Z,2.00
2018-08-12T22:13:24.594Z,1.90
2018-08-12T22:15:53.289Z,1.80
2018-08-12T22:18:21.967Z,1.75
2018-08-12T22:20:50.743Z,1.65
2018-08-12T22:23:19.898Z,1.90
2018-08-12T22:25:48.969Z,1.85
2018-08-12T22:28:18.106Z,1.87
2018-08-12T22:30:47.324Z,2.00
2018-08-12T22:33:16.623Z,1.67
2018-08-12T22:35:45.294Z,3.67
2018-08-12T22:38:14.000Z,1.92
2018-08-12T22:40:43.013Z,2.00
2018-08-12T22:43:12.052Z,2.02
2018-08-12T22:45:40.696Z,2.33
2018-08-12T22:48:09.792Z,1.92
2018-08-12T22:50:38.839Z,1.70
2018-08-12T22:53:08.756Z,1.60
2018-08-12T22:55:37.737Z,2.65
2018-08-12T22:58:06.638Z,2.50
2018-08-12T23:00:35.495Z,2.00
2018-08-12T23:03:04.297Z,1.90
2018-08-12T23:05:33.045Z,2.22
2018-08-12T23:08:07.918Z,2.10
2018-08-12T23:10:37.332Z,1.90
2018-08-12T23:13:06.260Z,2.50
2018-08-12T23:16:16.688Z,2.10
2018-08-12T23:18:45.759Z,2.20
2018-08-12T23:21:16.165Z,2.72
2018-08-12T23:23:46.328Z,2.20
2018-08-12T23:26:16.590Z,1.90
2018-08-12T23:28:45.914Z,1.90
2018-08-12T23:31:15.239Z,2.02
2018-08-12T23:33:44.179Z,2.05
2018-08-12T23:36:13.527Z,2.25
2018-08-12T23:38:42.268Z,2.00
2018-08-12T23:41:11.658Z,2.20
2018-08-12T23:43:47.528Z,2.05
2018-08-12T23:46:16.475Z,1.90
2018-08-12T23:48:45.182Z,2.00
2018-08-12T23:51:13.855Z,2.30
2018-08-12T23:53:42.920Z,2.25
2018-08-12T23:56:12.389Z,2.87
2018-08-12T23:58:41.636Z,2.10
